createdAt,value
2023-03-21T00:00:46.812Z,8.1
2023-03-21T00:06:59.643Z,8.1
2023-03-21T00:13:18.261Z,8.1
2023-03-21T00:19:27.528Z,8.1
2023-03-21T00:26:04.259Z,8
2023-03-21T00:32:45.941Z,7.9
2023-03-21T00:39:47.899Z,7.9
2023-03-21T00:46:13.439Z,7.8
2023-03-21T00:52:47.016Z,7.8
2023-03-21T00:58:35.950Z,7.6
2023-03-21T01:04:42.163Z,7.5
2023-03-21T01:10:37.799Z,7.3
2023-03-21T01:16:40.323Z,7.1
2023-03-21T01:22:57.795Z,6.9
2023-03-21T01:28:30.701Z,6.7
2023-03-21T01:34:24.866Z,6.5
2023-03-21T01:40:25.363Z,6.4
2023-03-21T01:46:15.042Z,6.3
2023-03-21T01:52:29.990Z,6.3
2023-03-21T01:58:24.156Z,6.3
2023-03-21T02:04:03.751Z,6.3
2023-03-21T02:09:51.036Z,6.1
2023-03-21T02:15:41.725Z,5.9
2023-03-21T02:21:22.850Z,5.8
2023-03-21T02:27:06.623Z,5.6
2023-03-21T02:33:28.236Z,5.4
2023-03-21T02:39:46.056Z,5.3
2023-03-21T02:46:14.122Z,5.2
2023-03-21T02:53:11.058Z,5
2023-03-21T02:59:47.568Z,4.9
2023-03-21T03:05:28.204Z,4.8
2023-03-21T03:11:04.103Z,4.8
2023-03-21T03:17:36.211Z,4.7
2023-03-21T03:23:24.654Z,4.6
2023-03-21T03:29:08.373Z,4.6
2023-03-21T03:35:23.864Z,4.5
2023-03-21T03:41:04.255Z,4.4
2023-03-21T03:47:56.640Z,4.4
2023-03-21T03:53:52.440Z,4.4
2023-03-21T03:59:58.163Z,4.4
2023-03-21T04:06:14.376Z,4.4
2023-03-21T04:18:20.817Z,4.2
2023-03-21T04:24:02.680Z,4.1
2023-03-21T04:30:10.715Z,3.9
2023-03-21T04:36:29.818Z,3.8
2023-03-21T04:42:21.922Z,3.7
2023-03-21T04:48:15.032Z,3.7
2023-03-21T04:54:06.172Z,3.8
2023-03-21T04:59:58.332Z,3.9
2023-03-21T05:05:52.580Z,4.1
2023-03-21T05:11:47.747Z,4.4
2023-03-21T05:17:40.639Z,4.6
2023-03-21T05:23:32.004Z,4.9
2023-03-21T05:29:24.288Z,5.3
2023-03-21T05:35:17.953Z,5.6
2023-03-21T05:40:55.589Z,6.1
2023-03-21T05:46:49.664Z,6.8
2023-03-21T05:52:27.021Z,7.9
2023-03-21T05:58:18.497Z,9.3
2023-03-21T06:04:11.650Z,11
2023-03-21T06:10:04.089Z,12.9
2023-03-21T06:15:57.139Z,15.1
2023-03-21T06:21:49.593Z,17.6
2023-03-21T06:26:56.241Z,19.9
2023-03-21T06:32:48.341Z,21.3
2023-03-21T06:38:41.056Z,22.1
2023-03-21T06:44:33.985Z,22.7
2023-03-21T06:50:27.669Z,23.2
2023-03-21T06:55:49.817Z,23.9
2023-03-21T07:01:25.947Z,24.4
2023-03-21T07:07:22.243Z,24.6
2023-03-21T07:12:59.506Z,24.8
2023-03-21T07:18:51.745Z,25.2
2023-03-21T07:24:48.895Z,26.2
2023-03-21T07:30:28.514Z,27.4
2023-03-21T07:36:06.242Z,28.3
2023-03-21T07:41:42.659Z,28.8
2023-03-21T07:47:39.845Z,29.1
2023-03-21T07:53:33.489Z,30.1
2023-03-21T07:59:26.246Z,32.1
2023-03-21T08:05:19.771Z,33.9
2023-03-21T08:11:16.296Z,35.4
2023-03-21T08:17:09.118Z,36.8
2023-03-21T08:23:01.372Z,39.7
2023-03-21T08:28:54.730Z,40.6
2023-03-21T08:34:32.579Z,40.3
2023-03-21T08:40:29.284Z,39.4
2023-03-21T08:46:07.773Z,38.6
2023-03-21T08:52:01.074Z,37.8
2023-03-21T08:57:54.872Z,37.2
2023-03-21T09:03:48.569Z,36.8
2023-03-21T09:09:42.690Z,36.8
2023-03-21T09:15:42.550Z,36.1
2023-03-21T09:21:35.343Z,35.8
2023-03-21T09:27:30.425Z,35.6
2023-03-21T09:33:07.340Z,36
2023-03-21T09:39:00.557Z,36.8
2023-03-21T09:44:53.491Z,38.6
2023-03-21T09:51:05.340Z,39.1
2023-03-21T09:56:57.953Z,38.8
2023-03-21T10:02:51.978Z,38.8
2023-03-21T10:08:46.021Z,39.3
2023-03-21T10:14:38.939Z,41.5
2023-03-21T10:20:34.999Z,47.6
2023-03-21T10:26:55.330Z,60.1
2023-03-21T10:33:05.040Z,49.6
2023-03-21T10:38:59.450Z,47.3
2023-03-21T10:44:37.694Z,47.7
2023-03-21T10:50:57.246Z,44.3
2023-03-21T10:56:51.987Z,43
2023-03-21T11:02:29.632Z,49.4
2023-03-21T11:08:07.386Z,53.8
2023-03-21T11:14:11.342Z,45.7
2023-03-21T11:20:06.036Z,45.1
2023-03-21T11:25:43.990Z,45.4
2023-03-21T11:31:37.796Z,45.3
2023-03-21T11:37:30.329Z,47.1
2023-03-21T11:43:23.300Z,49.1
2023-03-21T11:49:17.525Z,44.8
2023-03-21T11:55:00.292Z,44.4
2023-03-21T12:01:05.913Z,44.5
2023-03-21T12:07:12.343Z,46.8
2023-03-21T12:13:13.195Z,47.6
2023-03-21T12:19:06.926Z,47.3
2023-03-21T12:25:00.711Z,47
2023-03-21T12:31:07.599Z,46.2
2023-03-21T12:37:02.176Z,45.1
2023-03-21T12:42:57.032Z,44.9
2023-03-21T12:49:11.761Z,44.6
2023-03-21T12:54:49.502Z,44.8
2023-03-21T13:00:18.279Z,44.8
2023-03-21T13:06:15.134Z,44.4
2023-03-21T13:11:58.729Z,43.4
2023-03-21T13:18:00.253Z,43
2023-03-21T13:23:52.651Z,41.8
2023-03-21T13:29:45.801Z,40.7
2023-03-21T13:35:34.204Z,39.4
2023-03-21T13:41:27.256Z,38.4
2023-03-21T13:47:37.657Z,37.3
2023-03-21T13:53:40.103Z,36.1
2023-03-21T13:59:33.603Z,35
2023-03-21T14:05:38.155Z,34
2023-03-21T14:11:47.287Z,32.7
2023-03-21T14:17:53.100Z,31.4
2023-03-21T14:24:17.472Z,30.4
2023-03-21T14:30:36.662Z,29.1
2023-03-21T14:42:02.714Z,26.8
2023-03-21T14:48:04.334Z,25.6
2023-03-21T14:53:41.267Z,24.4
2023-03-21T14:59:19.621Z,23.1
2023-03-21T15:05:13.682Z,21.6
2023-03-21T15:10:57.757Z,20.5
2023-03-21T15:16:58.854Z,19.7
2023-03-21T15:22:52.315Z,18.8
2023-03-21T15:28:45.761Z,18.3
2023-03-21T15:34:24.797Z,17.9
2023-03-21T15:40:02.434Z,17.6
2023-03-21T15:45:42.010Z,17.4
2023-03-21T15:51:21.624Z,17.1
2023-03-21T15:56:45.784Z,16.9
2023-03-21T16:02:08.548Z,16.6
2023-03-21T16:08:02.081Z,16.3
2023-03-21T16:13:54.594Z,15.8
2023-03-21T16:19:47.187Z,15.3
2023-03-21T16:25:40.318Z,14.7
2023-03-21T16:31:32.850Z,14.1
2023-03-21T16:37:25.879Z,13.6
2023-03-21T16:43:03.909Z,13.1
2023-03-21T16:48:42.155Z,12.8
2023-03-21T16:54:19.425Z,12.4
2023-03-21T16:59:58.675Z,12.2
2023-03-21T17:05:53.966Z,11.9
2023-03-21T17:11:30.483Z,11.6
2023-03-21T17:17:23.754Z,11.3
2023-03-21T17:23:04.236Z,11.1
2023-03-21T17:28:56.187Z,10.9
2023-03-21T17:34:49.703Z,10.7
2023-03-21T17:40:43.045Z,10.5
2023-03-21T17:46:34.677Z,10.4
2023-03-21T17:51:58.230Z,10.2
2023-03-21T17:57:22.876Z,10.1
2023-03-21T18:03:18.426Z,9.9
2023-03-21T18:09:55.726Z,9.8
2023-03-21T18:16:12.730Z,9.7
2023-03-21T18:22:02.253Z,9.6
2023-03-21T18:28:21.007Z,9.6
2023-03-21T18:36:25.728Z,9.4
2023-03-21T18:42:22.169Z,9.4
2023-03-21T18:50:15.666Z,9.3
2023-03-21T19:03:38.389Z,9.2
2023-03-21T19:10:15.750Z,9.1
2023-03-21T19:16:11.624Z,9.1
2023-03-21T19:24:16.250Z,9.1
2023-03-21T19:30:27.867Z,9
2023-03-21T19:36:52.289Z,8.9
2023-03-21T19:42:48.511Z,8.9
2023-03-21T19:49:01.572Z,8.9
2023-03-21T19:56:26.939Z,8.9
2023-03-21T20:02:51.454Z,8.8
2023-03-21T20:15:32.389Z,8.8
2023-03-21T20:21:49.634Z,8.8
2023-03-21T20:28:29.401Z,8.8
2023-03-21T20:36:40.328Z,8.7
2023-03-21T20:42:36.178Z,8.6
2023-03-21T20:49:52.569Z,8.6
2023-03-21T20:57:05.995Z,8.6
2023-03-21T21:03:47.172Z,8.6
2023-03-21T21:10:01.415Z,8.6
2023-03-21T21:16:30.856Z,8.6
2023-03-21T21:23:16.772Z,8.5
2023-03-21T21:29:11.368Z,8.5
2023-03-21T21:35:04.868Z,8.5
2023-03-21T21:40:57.354Z,8.6
2023-03-21T21:46:34.434Z,8.5
2023-03-21T21:52:27.702Z,8.5
2023-03-21T21:58:06.615Z,8.5
2023-03-21T22:03:58.033Z,8.5
2023-03-21T22:09:38.659Z,8.5
2023-03-21T22:15:16.983Z,8.4
2023-03-21T22:20:57.753Z,8.4
2023-03-21T22:26:35.781Z,8.3
2023-03-21T22:32:29.269Z,8.3
2023-03-21T22:38:13.866Z,8.1
2023-03-21T22:44:07.394Z,8.1
2023-03-21T22:49:43.715Z,7.9
2023-03-21T22:55:36.304Z,7.9
2023-03-21T23:01:29.341Z,7.8
2023-03-21T23:07:08.480Z,7.8
2023-03-21T23:12:45.543Z,7.7
2023-03-21T23:18:23.493Z,7.6
2023-03-21T23:24:15.751Z,7.6
2023-03-21T23:29:55.194Z,7.6
2023-03-21T23:35:49.346Z,7.5
2023-03-21T23:41:41.371Z,7.4
2023-03-21T23:47:33.453Z,7.4
2023-03-21T23:53:27.862Z,7.3
2023-03-21T23:59:21.275Z,7.3
